sensor_id;sensor_type;location;lat;lon;timestamp;P1;durP1;ratioP1;P2;durP2;ratioP2
75496;SDS011;64074;47.540;19.072;2024-01-07T00:02:10;21.73;;;11.55;;
75496;SDS011;64074;47.540;19.072;2024-01-07T00:05:14;23.17;;;11.73;;
75496;SDS011;64074;47.540;19.072;2024-01-07T00:08:18;23.33;;;11.02;;
75496;SDS011;64074;47.540;19.072;2024-01-07T00:11:34;22.13;;;10.53;;
75496;SDS011;64074;47.540;19.072;2024-01-07T00:14:44;21.60;;;11.05;;
75496;SDS011;64074;47.540;19.072;2024-01-07T00:18:07;21.58;;;11.18;;
75496;SDS011;64074;47.540;19.072;2024-01-07T00:21:20;24.33;;;11.70;;
75496;SDS011;64074;47.540;19.072;2024-01-07T00:24:25;21.83;;;12.05;;
75496;SDS011;64074;47.540;19.072;2024-01-07T00:27:37;21.47;;;11.80;;
75496;SDS011;64074;47.540;19.072;2024-01-07T00:30:52;24.02;;;11.75;;
75496;SDS011;64074;47.540;19.072;2024-01-07T00:34:11;25.52;;;12.07;;
75496;SDS011;64074;47.540;19.072;2024-01-07T00:37:29;23.35;;;12.13;;
75496;SDS011;64074;47.540;19.072;2024-01-07T00:40:51;22.38;;;11.57;;
75496;SDS011;64074;47.540;19.072;2024-01-07T00:44:04;23.97;;;11.70;;
75496;SDS011;64074;47.540;19.072;2024-01-07T00:47:13;24.08;;;12.18;;
75496;SDS011;64074;47.540;19.072;2024-01-07T00:50:24;23.77;;;11.70;;
75496;SDS011;64074;47.540;19.072;2024-01-07T00:53:30;20.30;;;11.75;;
75496;SDS011;64074;47.540;19.072;2024-01-07T00:56:36;23.15;;;12.20;;
75496;SDS011;64074;47.540;19.072;2024-01-07T00:59:46;20.93;;;11.37;;
75496;SDS011;64074;47.540;19.072;2024-01-07T01:02:52;19.40;;;11.38;;
75496;SDS011;64074;47.540;19.072;2024-01-07T01:05:56;21.20;;;12.13;;
75496;SDS011;64074;47.540;19.072;2024-01-07T01:09:07;21.45;;;11.20;;
75496;SDS011;64074;47.540;19.072;2024-01-07T01:12:12;22.30;;;12.07;;
75496;SDS011;64074;47.540;19.072;2024-01-07T01:15:21;22.10;;;11.57;;
75496;SDS011;64074;47.540;19.072;2024-01-07T01:18:45;22.00;;;12.10;;
75496;SDS011;64074;47.540;19.072;2024-01-07T01:22:12;23.17;;;12.38;;
75496;SDS011;64074;47.540;19.072;2024-01-07T01:25:30;23.67;;;12.90;;
75496;SDS011;64074;47.540;19.072;2024-01-07T01:29:00;22.05;;;12.40;;
75496;SDS011;64074;47.540;19.072;2024-01-07T01:32:28;21.17;;;11.63;;
75496;SDS011;64074;47.540;19.072;2024-01-07T01:35:39;21.08;;;11.20;;
75496;SDS011;64074;47.540;19.072;2024-01-07T01:38:45;20.90;;;11.82;;
75496;SDS011;64074;47.540;19.072;2024-01-07T01:42:28;19.98;;;11.95;;
75496;SDS011;64074;47.540;19.072;2024-01-07T01:45:36;19.25;;;11.27;;
75496;SDS011;64074;47.540;19.072;2024-01-07T01:48:46;16.83;;;9.77;;
75496;SDS011;64074;47.540;19.072;2024-01-07T01:52:08;18.98;;;10.07;;
75496;SDS011;64074;47.540;19.072;2024-01-07T01:55:31;18.45;;;10.38;;
75496;SDS011;64074;47.540;19.072;2024-01-07T01:58:41;17.08;;;9.60;;
75496;SDS011;64074;47.540;19.072;2024-01-07T02:02:13;19.45;;;10.82;;
75496;SDS011;64074;47.540;19.072;2024-01-07T02:05:40;17.70;;;9.60;;
75496;SDS011;64074;47.540;19.072;2024-01-07T02:09:00;17.70;;;9.85;;
75496;SDS011;64074;47.540;19.072;2024-01-07T02:12:21;20.83;;;10.70;;
75496;SDS011;64074;47.540;19.072;2024-01-07T02:15:49;19.80;;;10.52;;
75496;SDS011;64074;47.540;19.072;2024-01-07T02:19:05;19.52;;;10.52;;
75496;SDS011;64074;47.540;19.072;2024-01-07T02:22:18;17.83;;;9.63;;
75496;SDS011;64074;47.540;19.072;2024-01-07T02:25:26;20.70;;;11.07;;
75496;SDS011;64074;47.540;19.072;2024-01-07T02:28:35;19.10;;;10.10;;
75496;SDS011;64074;47.540;19.072;2024-01-07T02:31:45;18.98;;;10.90;;
75496;SDS011;64074;47.540;19.072;2024-01-07T02:35:07;18.90;;;10.35;;
75496;SDS011;64074;47.540;19.072;2024-01-07T02:38:32;18.57;;;9.47;;
75496;SDS011;64074;47.540;19.072;2024-01-07T02:41:54;20.58;;;10.80;;
75496;SDS011;64074;47.540;19.072;2024-01-07T02:45:15;18.08;;;9.55;;
75496;SDS011;64074;47.540;19.072;2024-01-07T02:48:42;17.48;;;9.35;;
75496;SDS011;64074;47.540;19.072;2024-01-07T02:52:03;27.55;;;15.43;;
75496;SDS011;64074;47.540;19.072;2024-01-07T02:55:21;21.03;;;11.70;;
75496;SDS011;64074;47.540;19.072;2024-01-07T02:58:34;22.23;;;12.15;;
75496;SDS011;64074;47.540;19.072;2024-01-07T03:02:03;21.00;;;11.05;;
75496;SDS011;64074;47.540;19.072;2024-01-07T03:05:31;19.42;;;9.80;;
75496;SDS011;64074;47.540;19.072;2024-01-07T03:08:47;20.95;;;9.48;;
75496;SDS011;64074;47.540;19.072;2024-01-07T03:12:01;20.50;;;10.10;;
75496;SDS011;64074;47.540;19.072;2024-01-07T03:15:05;17.70;;;9.15;;
75496;SDS011;64074;47.540;19.072;2024-01-07T03:18:18;20.95;;;9.85;;
75496;SDS011;64074;47.540;19.072;2024-01-07T03:21:36;19.00;;;9.40;;
75496;SDS011;64074;47.540;19.072;2024-01-07T03:25:02;16.85;;;9.15;;
75496;SDS011;64074;47.540;19.072;2024-01-07T03:28:19;18.23;;;9.30;;
75496;SDS011;64074;47.540;19.072;2024-01-07T03:31:55;18.83;;;9.40;;
75496;SDS011;64074;47.540;19.072;2024-01-07T03:35:06;17.52;;;8.77;;
75496;SDS011;64074;47.540;19.072;2024-01-07T03:38:30;15.90;;;8.52;;
75496;SDS011;64074;47.540;19.072;2024-01-07T03:41:47;15.80;;;8.20;;
75496;SDS011;64074;47.540;19.072;2024-01-07T03:45:06;14.70;;;8.23;;
75496;SDS011;64074;47.540;19.072;2024-01-07T03:48:16;14.73;;;8.35;;
75496;SDS011;64074;47.540;19.072;2024-01-07T03:51:24;17.50;;;8.68;;
75496;SDS011;64074;47.540;19.072;2024-01-07T03:54:37;14.90;;;7.80;;
75496;SDS011;64074;47.540;19.072;2024-01-07T03:57:47;13.95;;;7.95;;
75496;SDS011;64074;47.540;19.072;2024-01-07T04:01:09;15.03;;;7.80;;
75496;SDS011;64074;47.540;19.072;2024-01-07T04:04:30;15.35;;;7.90;;
75496;SDS011;64074;47.540;19.072;2024-01-07T04:07:52;13.77;;;8.02;;
75496;SDS011;64074;47.540;19.072;2024-01-07T04:11:13;10.95;;;6.43;;
75496;SDS011;64074;47.540;19.072;2024-01-07T04:14:38;13.32;;;7.22;;
75496;SDS011;64074;47.540;19.072;2024-01-07T04:18:03;13.03;;;6.93;;
75496;SDS011;64074;47.540;19.072;2024-01-07T04:21:21;12.05;;;6.85;;
75496;SDS011;64074;47.540;19.072;2024-01-07T04:24:41;12.32;;;6.82;;
75496;SDS011;64074;47.540;19.072;2024-01-07T04:28:05;11.52;;;6.53;;
75496;SDS011;64074;47.540;19.072;2024-01-07T04:31:25;10.80;;;6.30;;
75496;SDS011;64074;47.540;19.072;2024-01-07T04:34:45;10.70;;;6.20;;
75496;SDS011;64074;47.540;19.072;2024-01-07T04:38:05;11.40;;;6.20;;
75496;SDS011;64074;47.540;19.072;2024-01-07T04:41:17;10.73;;;6.30;;
75496;SDS011;64074;47.540;19.072;2024-01-07T04:44:23;8.55;;;5.15;;
75496;SDS011;64074;47.540;19.072;2024-01-07T04:47:32;11.27;;;6.20;;
75496;SDS011;64074;47.540;19.072;2024-01-07T04:50:54;9.40;;;5.33;;
75496;SDS011;64074;47.540;19.072;2024-01-07T04:54:16;10.23;;;5.40;;
75496;SDS011;64074;47.540;19.072;2024-01-07T04:57:39;9.30;;;5.10;;
75496;SDS011;64074;47.540;19.072;2024-01-07T05:01:01;10.00;;;5.55;;
75496;SDS011;64074;47.540;19.072;2024-01-07T05:04:23;9.68;;;5.78;;
75496;SDS011;64074;47.540;19.072;2024-01-07T05:07:34;9.87;;;5.03;;
75496;SDS011;64074;47.540;19.072;2024-01-07T05:11:06;9.32;;;5.30;;
75496;SDS011;64074;47.540;19.072;2024-01-07T05:14:23;8.15;;;4.70;;
75496;SDS011;64074;47.540;19.072;2024-01-07T05:17:52;8.05;;;4.68;;
75496;SDS011;64074;47.540;19.072;2024-01-07T05:21:20;7.65;;;4.88;;
75496;SDS011;64074;47.540;19.072;2024-01-07T05:24:41;10.23;;;4.97;;
75496;SDS011;64074;47.540;19.072;2024-01-07T05:27:59;10.00;;;4.70;;
75496;SDS011;64074;47.540;19.072;2024-01-07T05:31:25;8.35;;;4.78;;
75496;SDS011;64074;47.540;19.072;2024-01-07T05:34:35;8.45;;;5.07;;
75496;SDS011;64074;47.540;19.072;2024-01-07T05:38:04;6.80;;;4.47;;
75496;SDS011;64074;47.540;19.072;2024-01-07T05:41:16;7.93;;;4.73;;
75496;SDS011;64074;47.540;19.072;2024-01-07T05:44:51;9.05;;;5.03;;
75496;SDS011;64074;47.540;19.072;2024-01-07T05:48:09;6.95;;;4.63;;
75496;SDS011;64074;47.540;19.072;2024-01-07T05:51:39;8.38;;;4.47;;
75496;SDS011;64074;47.540;19.072;2024-01-07T05:55:03;7.85;;;4.30;;
75496;SDS011;64074;47.540;19.072;2024-01-07T05:58:24;7.00;;;4.53;;
75496;SDS011;64074;47.540;19.072;2024-01-07T06:01:43;8.45;;;4.70;;
75496;SDS011;64074;47.540;19.072;2024-01-07T06:05:12;9.23;;;5.15;;
75496;SDS011;64074;47.540;19.072;2024-01-07T06:08:27;7.82;;;4.75;;
75496;SDS011;64074;47.540;19.072;2024-01-07T06:11:38;8.02;;;4.97;;
75496;SDS011;64074;47.540;19.072;2024-01-07T06:14:42;9.27;;;5.27;;
75496;SDS011;64074;47.540;19.072;2024-01-07T06:17:53;7.88;;;5.22;;
75496;SDS011;64074;47.540;19.072;2024-01-07T06:21:03;9.60;;;5.47;;
75496;SDS011;64074;47.540;19.072;2024-01-07T06:24:19;8.43;;;5.28;;
75496;SDS011;64074;47.540;19.072;2024-01-07T06:27:42;10.10;;;5.85;;
75496;SDS011;64074;47.540;19.072;2024-01-07T06:30:58;9.40;;;5.57;;
75496;SDS011;64074;47.540;19.072;2024-01-07T06:34:27;11.68;;;5.90;;
75496;SDS011;64074;47.540;19.072;2024-01-07T06:37:59;11.45;;;6.40;;
75496;SDS011;64074;47.540;19.072;2024-01-07T06:41:26;14.00;;;5.63;;
75496;SDS011;64074;47.540;19.072;2024-01-07T06:44:47;14.40;;;6.72;;
75496;SDS011;64074;47.540;19.072;2024-01-07T06:48:08;12.97;;;6.40;;
75496;SDS011;64074;47.540;19.072;2024-01-07T06:51:33;11.30;;;6.13;;
75496;SDS011;64074;47.540;19.072;2024-01-07T06:54:54;9.93;;;5.85;;
75496;SDS011;64074;47.540;19.072;2024-01-07T06:58:13;9.85;;;5.75;;
75496;SDS011;64074;47.540;19.072;2024-01-07T07:01:23;8.80;;;5.68;;
75496;SDS011;64074;47.540;19.072;2024-01-07T07:04:55;8.17;;;5.10;;
75496;SDS011;64074;47.540;19.072;2024-01-07T07:08:06;8.80;;;5.22;;
75496;SDS011;64074;47.540;19.072;2024-01-07T07:11:32;9.13;;;5.63;;
75496;SDS011;64074;47.540;19.072;2024-01-07T07:14:41;9.00;;;4.85;;
75496;SDS011;64074;47.540;19.072;2024-01-07T07:17:55;7.70;;;5.07;;
75496;SDS011;64074;47.540;19.072;2024-01-07T07:21:05;8.70;;;5.27;;
75496;SDS011;64074;47.540;19.072;2024-01-07T07:24:14;7.40;;;5.05;;
75496;SDS011;64074;47.540;19.072;2024-01-07T07:27:36;8.23;;;5.15;;
75496;SDS011;64074;47.540;19.072;2024-01-07T07:30:47;8.40;;;5.43;;
75496;SDS011;64074;47.540;19.072;2024-01-07T07:33:56;9.98;;;5.38;;
75496;SDS011;64074;47.540;19.072;2024-01-07T07:37:06;8.47;;;5.50;;
75496;SDS011;64074;47.540;19.072;2024-01-07T07:40:30;7.88;;;5.05;;
75496;SDS011;64074;47.540;19.072;2024-01-07T07:43:40;8.63;;;5.07;;
75496;SDS011;64074;47.540;19.072;2024-01-07T07:47:10;8.05;;;4.90;;
75496;SDS011;64074;47.540;19.072;2024-01-07T07:50:19;7.68;;;4.75;;
75496;SDS011;64074;47.540;19.072;2024-01-07T07:53:23;9.07;;;4.77;;
75496;SDS011;64074;47.540;19.072;2024-01-07T07:56:27;7.70;;;4.72;;
75496;SDS011;64074;47.540;19.072;2024-01-07T07:59:37;7.80;;;4.63;;
75496;SDS011;64074;47.540;19.072;2024-01-07T08:02:41;7.75;;;4.65;;
75496;SDS011;64074;47.540;19.072;2024-01-07T08:05:53;6.63;;;4.25;;
75496;SDS011;64074;47.540;19.072;2024-01-07T08:09:08;6.30;;;4.23;;
75496;SDS011;64074;47.540;19.072;2024-01-07T08:12:26;7.10;;;4.30;;
75496;SDS011;64074;47.540;19.072;2024-01-07T08:15:47;6.82;;;3.95;;
75496;SDS011;64074;47.540;19.072;2024-01-07T08:19:03;6.10;;;3.80;;
75496;SDS011;64074;47.540;19.072;2024-01-07T08:22:16;6.25;;;4.18;;
75496;SDS011;64074;47.540;19.072;2024-01-07T08:25:52;6.70;;;3.73;;
75496;SDS011;64074;47.540;19.072;2024-01-07T08:29:16;6.60;;;4.20;;
75496;SDS011;64074;47.540;19.072;2024-01-07T08:32:43;7.45;;;4.70;;
75496;SDS011;64074;47.540;19.072;2024-01-07T08:36:05;7.00;;;4.07;;
75496;SDS011;64074;47.540;19.072;2024-01-07T08:39:26;6.45;;;4.13;;
75496;SDS011;64074;47.540;19.072;2024-01-07T08:42:47;6.37;;;4.23;;
75496;SDS011;64074;47.540;19.072;2024-01-07T08:46:09;6.55;;;4.10;;
75496;SDS011;64074;47.540;19.072;2024-01-07T08:49:33;6.97;;;4.32;;
75496;SDS011;64074;47.540;19.072;2024-01-07T08:52:53;6.63;;;4.35;;
75496;SDS011;64074;47.540;19.072;2024-01-07T08:56:16;6.32;;;4.22;;
75496;SDS011;64074;47.540;19.072;2024-01-07T08:59:30;9.40;;;5.20;;
75496;SDS011;64074;47.540;19.072;2024-01-07T09:02:34;6.43;;;4.20;;
75496;SDS011;64074;47.540;19.072;2024-01-07T09:05:49;7.45;;;4.55;;
75496;SDS011;64074;47.540;19.072;2024-01-07T09:09:03;8.18;;;4.90;;
75496;SDS011;64074;47.540;19.072;2024-01-07T09:12:21;7.75;;;4.47;;
75496;SDS011;64074;47.540;19.072;2024-01-07T09:15:31;7.60;;;4.53;;
75496;SDS011;64074;47.540;19.072;2024-01-07T09:18:45;7.45;;;4.72;;
75496;SDS011;64074;47.540;19.072;2024-01-07T09:21:49;12.68;;;6.30;;
75496;SDS011;64074;47.540;19.072;2024-01-07T09:25:02;14.18;;;6.32;;
75496;SDS011;64074;47.540;19.072;2024-01-07T09:28:15;21.40;;;10.75;;
75496;SDS011;64074;47.540;19.072;2024-01-07T09:31:22;9.27;;;4.97;;
75496;SDS011;64074;47.540;19.072;2024-01-07T09:34:30;6.82;;;4.80;;
75496;SDS011;64074;47.540;19.072;2024-01-07T09:37:40;10.63;;;6.32;;
75496;SDS011;64074;47.540;19.072;2024-01-07T09:40:44;10.27;;;5.80;;
75496;SDS011;64074;47.540;19.072;2024-01-07T09:43:47;7.40;;;4.85;;
75496;SDS011;64074;47.540;19.072;2024-01-07T09:46:54;8.60;;;4.77;;
75496;SDS011;64074;47.540;19.072;2024-01-07T09:50:05;5.82;;;3.95;;
75496;SDS011;64074;47.540;19.072;2024-01-07T09:53:17;6.88;;;3.90;;
75496;SDS011;64074;47.540;19.072;2024-01-07T09:56:29;6.03;;;3.97;;
75496;SDS011;64074;47.540;19.072;2024-01-07T09:59:47;5.70;;;3.75;;
75496;SDS011;64074;47.540;19.072;2024-01-07T10:02:57;6.37;;;3.53;;
75496;SDS011;64074;47.540;19.072;2024-01-07T10:06:07;6.57;;;4.00;;
75496;SDS011;64074;47.540;19.072;2024-01-07T10:09:18;7.10;;;4.50;;
75496;SDS011;64074;47.540;19.072;2024-01-07T10:12:57;7.03;;;4.63;;
75496;SDS011;64074;47.540;19.072;2024-01-07T10:16:20;9.98;;;5.07;;
75496;SDS011;64074;47.540;19.072;2024-01-07T10:19:31;7.70;;;4.60;;
75496;SDS011;64074;47.540;19.072;2024-01-07T10:22:50;7.03;;;4.13;;
75496;SDS011;64074;47.540;19.072;2024-01-07T10:26:00;7.05;;;4.38;;
75496;SDS011;64074;47.540;19.072;2024-01-07T10:29:18;7.28;;;3.85;;
75496;SDS011;64074;47.540;19.072;2024-01-07T10:32:30;5.30;;;3.60;;
75496;SDS011;64074;47.540;19.072;2024-01-07T10:36:05;4.80;;;3.40;;
75496;SDS011;64074;47.540;19.072;2024-01-07T10:39:44;5.50;;;3.67;;
75496;SDS011;64074;47.540;19.072;2024-01-07T10:43:15;6.75;;;4.65;;
75496;SDS011;64074;47.540;19.072;2024-01-07T10:46:37;6.47;;;3.97;;
75496;SDS011;64074;47.540;19.072;2024-01-07T10:50:05;5.65;;;3.75;;
75496;SDS011;64074;47.540;19.072;2024-01-07T10:53:34;10.53;;;4.57;;
75496;SDS011;64074;47.540;19.072;2024-01-07T10:56:45;5.35;;;3.60;;
75496;SDS011;64074;47.540;19.072;2024-01-07T11:00:00;6.20;;;4.00;;
75496;SDS011;64074;47.540;19.072;2024-01-07T11:03:38;6.93;;;4.15;;
75496;SDS011;64074;47.540;19.072;2024-01-07T11:11:15;6.10;;;4.03;;
75496;SDS011;64074;47.540;19.072;2024-01-07T11:14:39;6.30;;;4.05;;
75496;SDS011;64074;47.540;19.072;2024-01-07T11:18:06;7.90;;;4.88;;
75496;SDS011;64074;47.540;19.072;2024-01-07T11:21:23;7.72;;;4.70;;
75496;SDS011;64074;47.540;19.072;2024-01-07T11:24:53;7.80;;;4.55;;
75496;SDS011;64074;47.540;19.072;2024-01-07T11:28:08;7.50;;;4.70;;
75496;SDS011;64074;47.540;19.072;2024-01-07T11:34:48;7.47;;;4.32;;
75496;SDS011;64074;47.540;19.072;2024-01-07T11:38:05;6.68;;;4.40;;
75496;SDS011;64074;47.540;19.072;2024-01-07T11:41:09;6.90;;;4.45;;
75496;SDS011;64074;47.540;19.072;2024-01-07T11:44:20;7.57;;;4.27;;
75496;SDS011;64074;47.540;19.072;2024-01-07T11:47:26;8.98;;;4.10;;
75496;SDS011;64074;47.540;19.072;2024-01-07T11:50:41;7.50;;;4.32;;
75496;SDS011;64074;47.540;19.072;2024-01-07T11:54:02;6.95;;;3.80;;
75496;SDS011;64074;47.540;19.072;2024-01-07T11:57:25;9.00;;;4.47;;
75496;SDS011;64074;47.540;19.072;2024-01-07T12:00:43;7.10;;;3.77;;
75496;SDS011;64074;47.540;19.072;2024-01-07T12:03:57;5.50;;;3.40;;
75496;SDS011;64074;47.540;19.072;2024-01-07T12:07:07;5.40;;;3.50;;
75496;SDS011;64074;47.540;19.072;2024-01-07T12:10:14;5.93;;;3.28;;
75496;SDS011;64074;47.540;19.072;2024-01-07T12:13:25;5.47;;;3.28;;
75496;SDS011;64074;47.540;19.072;2024-01-07T12:16:44;4.47;;;2.67;;
75496;SDS011;64074;47.540;19.072;2024-01-07T12:19:57;5.68;;;3.38;;
75496;SDS011;64074;47.540;19.072;2024-01-07T12:23:08;4.80;;;3.00;;
75496;SDS011;64074;47.540;19.072;2024-01-07T12:26:14;6.40;;;3.20;;
75496;SDS011;64074;47.540;19.072;2024-01-07T12:29:24;6.47;;;3.50;;
75496;SDS011;64074;47.540;19.072;2024-01-07T12:32:34;6.43;;;3.90;;
75496;SDS011;64074;47.540;19.072;2024-01-07T12:35:45;6.85;;;4.18;;
75496;SDS011;64074;47.540;19.072;2024-01-07T12:38:54;7.80;;;4.18;;
75496;SDS011;64074;47.540;19.072;2024-01-07T12:42:04;7.60;;;4.28;;
75496;SDS011;64074;47.540;19.072;2024-01-07T12:45:31;8.63;;;4.88;;
75496;SDS011;64074;47.540;19.072;2024-01-07T12:48:45;7.77;;;4.20;;
75496;SDS011;64074;47.540;19.072;2024-01-07T12:51:53;10.60;;;5.45;;
75496;SDS011;64074;47.540;19.072;2024-01-07T12:55:04;11.82;;;6.18;;
75496;SDS011;64074;47.540;19.072;2024-01-07T12:58:15;9.88;;;5.57;;
75496;SDS011;64074;47.540;19.072;2024-01-07T13:01:26;9.30;;;5.13;;
75496;SDS011;64074;47.540;19.072;2024-01-07T13:04:48;10.10;;;5.57;;
75496;SDS011;64074;47.540;19.072;2024-01-07T13:08:15;9.27;;;5.30;;
75496;SDS011;64074;47.540;19.072;2024-01-07T13:11:37;9.63;;;5.43;;
75496;SDS011;64074;47.540;19.072;2024-01-07T13:15:00;9.55;;;5.65;;
75496;SDS011;64074;47.540;19.072;2024-01-07T13:18:22;9.48;;;6.00;;
75496;SDS011;64074;47.540;19.072;2024-01-07T13:21:26;10.13;;;5.47;;
75496;SDS011;64074;47.540;19.072;2024-01-07T13:24:34;9.05;;;5.40;;
75496;SDS011;64074;47.540;19.072;2024-01-07T13:27:44;8.50;;;5.40;;
75496;SDS011;64074;47.540;19.072;2024-01-07T13:30:57;8.85;;;5.15;;
75496;SDS011;64074;47.540;19.072;2024-01-07T13:34:14;11.18;;;5.72;;
75496;SDS011;64074;47.540;19.072;2024-01-07T13:37:29;10.03;;;5.80;;
75496;SDS011;64074;47.540;19.072;2024-01-07T13:40:33;9.77;;;5.75;;
75496;SDS011;64074;47.540;19.072;2024-01-07T13:43:45;12.35;;;6.53;;
75496;SDS011;64074;47.540;19.072;2024-01-07T13:47:08;10.63;;;5.78;;
75496;SDS011;64074;47.540;19.072;2024-01-07T13:50:27;11.55;;;5.43;;
75496;SDS011;64074;47.540;19.072;2024-01-07T13:53:51;11.23;;;6.70;;
75496;SDS011;64074;47.540;19.072;2024-01-07T13:57:00;10.68;;;6.25;;
75496;SDS011;64074;47.540;19.072;2024-01-07T14:00:28;11.73;;;6.63;;
75496;SDS011;64074;47.540;19.072;2024-01-07T14:03:54;10.10;;;6.28;;
75496;SDS011;64074;47.540;19.072;2024-01-07T14:07:15;10.50;;;5.78;;
75496;SDS011;64074;47.540;19.072;2024-01-07T14:10:44;9.83;;;5.47;;
75496;SDS011;64074;47.540;19.072;2024-01-07T14:14:05;10.45;;;5.43;;
75496;SDS011;64074;47.540;19.072;2024-01-07T14:17:20;12.85;;;6.88;;
75496;SDS011;64074;47.540;19.072;2024-01-07T14:20:29;13.07;;;6.45;;
75496;SDS011;64074;47.540;19.072;2024-01-07T14:23:36;10.52;;;5.63;;
75496;SDS011;64074;47.540;19.072;2024-01-07T14:26:45;11.87;;;6.40;;
75496;SDS011;64074;47.540;19.072;2024-01-07T14:30:14;9.43;;;5.90;;
75496;SDS011;64074;47.540;19.072;2024-01-07T14:33:25;11.55;;;6.22;;
75496;SDS011;64074;47.540;19.072;2024-01-07T14:36:30;10.93;;;5.35;;
75496;SDS011;64074;47.540;19.072;2024-01-07T14:39:37;12.15;;;5.72;;
75496;SDS011;64074;47.540;19.072;2024-01-07T14:42:47;11.47;;;6.27;;
75496;SDS011;64074;47.540;19.072;2024-01-07T14:46:07;11.25;;;6.15;;
75496;SDS011;64074;47.540;19.072;2024-01-07T14:49:25;9.77;;;5.35;;
75496;SDS011;64074;47.540;19.072;2024-01-07T14:52:52;11.57;;;5.90;;
75496;SDS011;64074;47.540;19.072;2024-01-07T14:56:13;8.55;;;4.63;;
75496;SDS011;64074;47.540;19.072;2024-01-07T14:59:31;12.00;;;5.57;;
75496;SDS011;64074;47.540;19.072;2024-01-07T15:02:50;10.90;;;4.97;;
75496;SDS011;64074;47.540;19.072;2024-01-07T15:06:18;11.40;;;6.07;;
75496;SDS011;64074;47.540;19.072;2024-01-07T15:09:43;9.35;;;4.70;;
75496;SDS011;64074;47.540;19.072;2024-01-07T15:13:06;10.55;;;5.70;;
75496;SDS011;64074;47.540;19.072;2024-01-07T15:16:29;11.00;;;5.77;;
75496;SDS011;64074;47.540;19.072;2024-01-07T15:19:44;8.63;;;4.78;;
75496;SDS011;64074;47.540;19.072;2024-01-07T15:23:00;9.82;;;5.80;;
75496;SDS011;64074;47.540;19.072;2024-01-07T15:26:11;12.13;;;5.93;;
75496;SDS011;64074;47.540;19.072;2024-01-07T15:29:22;11.35;;;5.38;;
75496;SDS011;64074;47.540;19.072;2024-01-07T15:36:38;8.98;;;4.55;;
75496;SDS011;64074;47.540;19.072;2024-01-07T15:40:06;11.02;;;5.50;;
75496;SDS011;64074;47.540;19.072;2024-01-07T15:43:27;11.57;;;5.47;;
75496;SDS011;64074;47.540;19.072;2024-01-07T15:46:51;10.48;;;5.13;;
75496;SDS011;64074;47.540;19.072;2024-01-07T15:50:05;10.40;;;5.40;;
75496;SDS011;64074;47.540;19.072;2024-01-07T15:53:35;7.10;;;3.95;;
75496;SDS011;64074;47.540;19.072;2024-01-07T15:56:39;10.98;;;4.78;;
75496;SDS011;64074;47.540;19.072;2024-01-07T15:59:51;10.63;;;5.15;;
75496;SDS011;64074;47.540;19.072;2024-01-07T16:02:55;9.35;;;4.72;;
75496;SDS011;64074;47.540;19.072;2024-01-07T16:06:09;10.43;;;5.63;;
75496;SDS011;64074;47.540;19.072;2024-01-07T16:09:22;11.05;;;5.30;;
75496;SDS011;64074;47.540;19.072;2024-01-07T16:12:30;8.55;;;5.03;;
75496;SDS011;64074;47.540;19.072;2024-01-07T16:15:40;10.70;;;5.70;;
75496;SDS011;64074;47.540;19.072;2024-01-07T16:18:58;11.05;;;5.47;;
75496;SDS011;64074;47.540;19.072;2024-01-07T16:22:18;8.57;;;4.47;;
75496;SDS011;64074;47.540;19.072;2024-01-07T16:25:37;10.45;;;5.00;;
75496;SDS011;64074;47.540;19.072;2024-01-07T16:28:48;10.63;;;5.38;;
75496;SDS011;64074;47.540;19.072;2024-01-07T16:32:06;11.25;;;5.38;;
75496;SDS011;64074;47.540;19.072;2024-01-07T16:35:15;11.50;;;5.78;;
75496;SDS011;64074;47.540;19.072;2024-01-07T16:38:25;11.37;;;5.87;;
75496;SDS011;64074;47.540;19.072;2024-01-07T16:41:43;11.52;;;5.38;;
75496;SDS011;64074;47.540;19.072;2024-01-07T16:45:21;12.15;;;5.63;;
75496;SDS011;64074;47.540;19.072;2024-01-07T16:48:39;12.77;;;6.40;;
75496;SDS011;64074;47.540;19.072;2024-01-07T16:52:07;11.30;;;5.68;;
75496;SDS011;64074;47.540;19.072;2024-01-07T16:55:17;13.23;;;5.90;;
75496;SDS011;64074;47.540;19.072;2024-01-07T16:58:39;10.88;;;5.50;;
75496;SDS011;64074;47.540;19.072;2024-01-07T17:02:10;11.93;;;5.75;;
75496;SDS011;64074;47.540;19.072;2024-01-07T17:05:22;11.73;;;6.50;;
75496;SDS011;64074;47.540;19.072;2024-01-07T17:08:32;11.27;;;5.63;;
75496;SDS011;64074;47.540;19.072;2024-01-07T17:12:02;12.57;;;6.37;;
75496;SDS011;64074;47.540;19.072;2024-01-07T17:15:25;13.27;;;6.80;;
75496;SDS011;64074;47.540;19.072;2024-01-07T17:18:56;12.50;;;6.35;;
75496;SDS011;64074;47.540;19.072;2024-01-07T17:22:10;11.43;;;6.10;;
75496;SDS011;64074;47.540;19.072;2024-01-07T17:25:34;13.52;;;7.25;;
75496;SDS011;64074;47.540;19.072;2024-01-07T17:28:44;11.87;;;5.53;;
75496;SDS011;64074;47.540;19.072;2024-01-07T17:32:02;14.48;;;6.32;;
75496;SDS011;64074;47.540;19.072;2024-01-07T17:35:21;12.82;;;6.93;;
75496;SDS011;64074;47.540;19.072;2024-01-07T17:38:46;14.60;;;6.35;;
75496;SDS011;64074;47.540;19.072;2024-01-07T17:42:20;12.45;;;6.80;;
75496;SDS011;64074;47.540;19.072;2024-01-07T17:45:32;13.33;;;7.27;;
75496;SDS011;64074;47.540;19.072;2024-01-07T17:49:07;24.80;;;10.98;;
75496;SDS011;64074;47.540;19.072;2024-01-07T17:52:24;12.02;;;6.50;;
75496;SDS011;64074;47.540;19.072;2024-01-07T17:55:46;13.25;;;5.97;;
75496;SDS011;64074;47.540;19.072;2024-01-07T17:59:11;11.57;;;5.93;;
75496;SDS011;64074;47.540;19.072;2024-01-07T18:02:14;12.93;;;6.10;;
75496;SDS011;64074;47.540;19.072;2024-01-07T18:05:24;13.13;;;6.22;;
75496;SDS011;64074;47.540;19.072;2024-01-07T18:08:38;14.27;;;7.00;;
75496;SDS011;64074;47.540;19.072;2024-01-07T18:11:55;13.82;;;6.78;;
75496;SDS011;64074;47.540;19.072;2024-01-07T18:15:05;13.43;;;6.40;;
75496;SDS011;64074;47.540;19.072;2024-01-07T18:18:21;13.10;;;5.87;;
75496;SDS011;64074;47.540;19.072;2024-01-07T18:21:30;13.13;;;6.65;;
75496;SDS011;64074;47.540;19.072;2024-01-07T18:24:40;14.35;;;6.78;;
75496;SDS011;64074;47.540;19.072;2024-01-07T18:27:56;12.23;;;6.65;;
75496;SDS011;64074;47.540;19.072;2024-01-07T18:31:08;13.57;;;6.10;;
75496;SDS011;64074;47.540;19.072;2024-01-07T18:34:15;10.63;;;5.53;;
75496;SDS011;64074;47.540;19.072;2024-01-07T18:37:28;14.65;;;6.28;;
75496;SDS011;64074;47.540;19.072;2024-01-07T18:40:39;13.38;;;6.55;;
75496;SDS011;64074;47.540;19.072;2024-01-07T18:43:56;13.15;;;6.18;;
75496;SDS011;64074;47.540;19.072;2024-01-07T18:47:10;13.38;;;6.50;;
75496;SDS011;64074;47.540;19.072;2024-01-07T18:50:18;10.70;;;5.67;;
75496;SDS011;64074;47.540;19.072;2024-01-07T18:53:23;15.07;;;5.60;;
75496;SDS011;64074;47.540;19.072;2024-01-07T18:56:33;13.38;;;6.47;;
75496;SDS011;64074;47.540;19.072;2024-01-07T18:59:54;11.93;;;5.68;;
75496;SDS011;64074;47.540;19.072;2024-01-07T19:03:18;16.60;;;6.13;;
75496;SDS011;64074;47.540;19.072;2024-01-07T19:06:28;13.30;;;6.90;;
75496;SDS011;64074;47.540;19.072;2024-01-07T19:10:00;13.43;;;7.18;;
75496;SDS011;64074;47.540;19.072;2024-01-07T19:13:21;13.10;;;5.82;;
75496;SDS011;64074;47.540;19.072;2024-01-07T19:16:41;12.02;;;6.35;;
75496;SDS011;64074;47.540;19.072;2024-01-07T19:20:05;11.90;;;5.35;;
75496;SDS011;64074;47.540;19.072;2024-01-07T19:23:28;15.03;;;6.37;;
75496;SDS011;64074;47.540;19.072;2024-01-07T19:26:51;13.25;;;6.32;;
75496;SDS011;64074;47.540;19.072;2024-01-07T19:30:18;12.75;;;5.90;;